sensor_id;sensor_type;location;lat;lon;timestamp;temperature;humidity
65072;DHT22;51663;52.310;17.016;2023-02-15T00:01:25;25.70;20.10
65072;DHT22;51663;52.310;17.016;2023-02-15T00:04:28;25.70;19.90
65072;DHT22;51663;52.310;17.016;2023-02-15T00:07:48;25.70;20.00
65072;DHT22;51663;52.310;17.016;2023-02-15T00:10:50;25.80;19.70
65072;DHT22;51663;52.310;17.016;2023-02-15T00:13:52;25.80;19.80
65072;DHT22;51663;52.310;17.016;2023-02-15T00:16:55;25.80;19.40
65072;DHT22;51663;52.310;17.016;2023-02-15T00:19:57;25.80;19.60
65072;DHT22;51663;52.310;17.016;2023-02-15T00:22:59;25.70;19.60
65072;DHT22;51663;52.310;17.016;2023-02-15T00:26:10;25.70;19.60
65072;DHT22;51663;52.310;17.016;2023-02-15T00:29:14;25.60;19.60
65072;DHT22;51663;52.310;17.016;2023-02-15T00:32:16;25.60;19.70
65072;DHT22;51663;52.310;17.016;2023-02-15T00:35:19;25.60;19.90
65072;DHT22;51663;52.310;17.016;2023-02-15T00:38:21;25.60;19.40
65072;DHT22;51663;52.310;17.016;2023-02-15T00:41:23;25.60;19.40
65072;DHT22;51663;52.310;17.016;2023-02-15T00:44:25;25.60;19.50
65072;DHT22;51663;52.310;17.016;2023-02-15T00:47:28;25.60;19.50
65072;DHT22;51663;52.310;17.016;2023-02-15T00:50:30;25.60;19.40
65072;DHT22;51663;52.310;17.016;2023-02-15T00:53:32;25.60;19.20
65072;DHT22;51663;52.310;17.016;2023-02-15T00:56:34;25.60;19.10
65072;DHT22;51663;52.310;17.016;2023-02-15T00:59:36;25.50;19.20
65072;DHT22;51663;52.310;17.016;2023-02-15T01:02:38;25.50;19.20
65072;DHT22;51663;52.310;17.016;2023-02-15T01:05:41;25.50;19.10
65072;DHT22;51663;52.310;17.016;2023-02-15T01:08:44;25.50;19.20
65072;DHT22;51663;52.310;17.016;2023-02-15T01:11:47;25.40;19.90
65072;DHT22;51663;52.310;17.016;2023-02-15T01:14:49;25.40;19.20
65072;DHT22;51663;52.310;17.016;2023-02-15T01:17:51;25.40;19.00
65072;DHT22;51663;52.310;17.016;2023-02-15T01:20:54;25.40;19.20
65072;DHT22;51663;52.310;17.016;2023-02-15T01:23:57;25.40;19.20
65072;DHT22;51663;52.310;17.016;2023-02-15T01:26:59;25.40;19.50
65072;DHT22;51663;52.310;17.016;2023-02-15T01:30:01;25.40;19.60
65072;DHT22;51663;52.310;17.016;2023-02-15T01:33:06;25.40;19.50
65072;DHT22;51663;52.310;17.016;2023-02-15T01:36:09;25.40;19.50
65072;DHT22;51663;52.310;17.016;2023-02-15T01:39:11;25.40;19.10
65072;DHT22;51663;52.310;17.016;2023-02-15T01:42:14;25.40;19.20
65072;DHT22;51663;52.310;17.016;2023-02-15T01:48:26;25.40;19.40
65072;DHT22;51663;52.310;17.016;2023-02-15T01:51:31;25.40;19.00
65072;DHT22;51663;52.310;17.016;2023-02-15T01:54:35;25.40;19.10
65072;DHT22;51663;52.310;17.016;2023-02-15T01:57:39;25.40;19.40
65072;DHT22;51663;52.310;17.016;2023-02-15T02:00:43;25.30;19.20
65072;DHT22;51663;52.310;17.016;2023-02-15T02:04:08;25.30;19.80
65072;DHT22;51663;52.310;17.016;2023-02-15T02:07:12;25.20;20.40
65072;DHT22;51663;52.310;17.016;2023-02-15T02:10:20;25.30;19.20
65072;DHT22;51663;52.310;17.016;2023-02-15T02:13:24;25.30;19.50
65072;DHT22;51663;52.310;17.016;2023-02-15T02:17:04;25.40;19.20
65072;DHT22;51663;52.310;17.016;2023-02-15T02:23:24;25.30;19.40
65072;DHT22;51663;52.310;17.016;2023-02-15T02:47:02;25.20;18.90
65072;DHT22;51663;52.310;17.016;2023-02-15T02:50:08;25.10;19.00
65072;DHT22;51663;52.310;17.016;2023-02-15T02:53:11;25.10;19.60
65072;DHT22;51663;52.310;17.016;2023-02-15T02:59:34;25.10;19.00
65072;DHT22;51663;52.310;17.016;2023-02-15T03:02:42;25.20;18.70
65072;DHT22;51663;52.310;17.016;2023-02-15T03:05:47;25.10;18.80
65072;DHT22;51663;52.310;17.016;2023-02-15T03:08:56;25.10;19.00
65072;DHT22;51663;52.310;17.016;2023-02-15T03:12:01;25.10;18.90
65072;DHT22;51663;52.310;17.016;2023-02-15T03:15:09;25.10;18.70
65072;DHT22;51663;52.310;17.016;2023-02-15T03:18:13;25.10;19.00
65072;DHT22;51663;52.310;17.016;2023-02-15T03:21:17;25.10;19.00
65072;DHT22;51663;52.310;17.016;2023-02-15T03:24:28;25.10;20.00
65072;DHT22;51663;52.310;17.016;2023-02-15T03:27:45;25.10;19.40
65072;DHT22;51663;52.310;17.016;2023-02-15T03:30:53;25.10;19.20
65072;DHT22;51663;52.310;17.016;2023-02-15T03:34:03;25.10;19.20
65072;DHT22;51663;52.310;17.016;2023-02-15T03:44:02;25.10;18.70
65072;DHT22;51663;52.310;17.016;2023-02-15T03:47:27;25.10;18.70
65072;DHT22;51663;52.310;17.016;2023-02-15T03:50:32;25.10;19.00
65072;DHT22;51663;52.310;17.016;2023-02-15T03:53:56;25.00;18.80
65072;DHT22;51663;52.310;17.016;2023-02-15T03:56:59;25.10;19.00
65072;DHT22;51663;52.310;17.016;2023-02-15T04:00:23;25.10;19.60
65072;DHT22;51663;52.310;17.016;2023-02-15T04:06:53;25.10;18.80
65072;DHT22;51663;52.310;17.016;2023-02-15T04:09:55;25.10;18.80
65072;DHT22;51663;52.310;17.016;2023-02-15T04:13:16;25.00;18.70
65072;DHT22;51663;52.310;17.016;2023-02-15T04:16:18;25.00;18.70
65072;DHT22;51663;52.310;17.016;2023-02-15T04:19:20;25.00;19.00
65072;DHT22;51663;52.310;17.016;2023-02-15T04:22:41;25.00;18.70
65072;DHT22;51663;52.310;17.016;2023-02-15T04:26:05;25.00;18.60
65072;DHT22;51663;52.310;17.016;2023-02-15T04:29:08;25.00;18.80
65072;DHT22;51663;52.310;17.016;2023-02-15T04:32:10;25.00;18.60
65072;DHT22;51663;52.310;17.016;2023-02-15T04:35:13;25.00;18.40
65072;DHT22;51663;52.310;17.016;2023-02-15T04:38:15;24.90;18.50
65072;DHT22;51663;52.310;17.016;2023-02-15T04:41:17;25.00;18.50
65072;DHT22;51663;52.310;17.016;2023-02-15T04:44:19;24.90;18.40
65072;DHT22;51663;52.310;17.016;2023-02-15T04:47:22;24.90;18.50
65072;DHT22;51663;52.310;17.016;2023-02-15T04:50:24;24.90;18.80
65072;DHT22;51663;52.310;17.016;2023-02-15T04:53:26;24.90;18.50
65072;DHT22;51663;52.310;17.016;2023-02-15T04:56:28;24.80;18.50
65072;DHT22;51663;52.310;17.016;2023-02-15T04:59:32;24.80;18.70
65072;DHT22;51663;52.310;17.016;2023-02-15T05:02:34;24.80;18.80
65072;DHT22;51663;52.310;17.016;2023-02-15T05:05:36;24.90;18.50
65072;DHT22;51663;52.310;17.016;2023-02-15T05:08:38;24.90;19.20
65072;DHT22;51663;52.310;17.016;2023-02-15T05:11:41;24.80;19.70
65072;DHT22;51663;52.310;17.016;2023-02-15T05:14:43;24.90;19.60
65072;DHT22;51663;52.310;17.016;2023-02-15T05:17:46;24.90;19.10
65072;DHT22;51663;52.310;17.016;2023-02-15T05:20:48;24.90;18.90
65072;DHT22;51663;52.310;17.016;2023-02-15T05:23:50;25.00;19.20
65072;DHT22;51663;52.310;17.016;2023-02-15T05:26:52;25.00;19.60
65072;DHT22;51663;52.310;17.016;2023-02-15T05:30:13;25.00;19.20
65072;DHT22;51663;52.310;17.016;2023-02-15T05:33:16;25.00;19.30
65072;DHT22;51663;52.310;17.016;2023-02-15T05:36:18;25.00;19.10
65072;DHT22;51663;52.310;17.016;2023-02-15T05:39:20;25.10;18.80
65072;DHT22;51663;52.310;17.016;2023-02-15T05:42:23;25.00;19.90
65072;DHT22;51663;52.310;17.016;2023-02-15T05:45:25;24.90;21.10
65072;DHT22;51663;52.310;17.016;2023-02-15T05:48:27;25.00;20.50
65072;DHT22;51663;52.310;17.016;2023-02-15T05:51:29;25.00;19.90
65072;DHT22;51663;52.310;17.016;2023-02-15T05:54:32;25.10;20.20
65072;DHT22;51663;52.310;17.016;2023-02-15T05:57:34;25.10;20.00
65072;DHT22;51663;52.310;17.016;2023-02-15T06:00:36;25.20;19.20
65072;DHT22;51663;52.310;17.016;2023-02-15T06:03:39;25.20;19.30
65072;DHT22;51663;52.310;17.016;2023-02-15T06:06:42;25.20;19.00
65072;DHT22;51663;52.310;17.016;2023-02-15T06:09:44;25.20;19.00
65072;DHT22;51663;52.310;17.016;2023-02-15T06:12:46;25.20;19.00
65072;DHT22;51663;52.310;17.016;2023-02-15T06:15:48;25.20;18.90
65072;DHT22;51663;52.310;17.016;2023-02-15T06:18:50;25.20;18.80
65072;DHT22;51663;52.310;17.016;2023-02-15T06:21:54;25.20;19.30
65072;DHT22;51663;52.310;17.016;2023-02-15T06:24:56;25.30;18.90
65072;DHT22;51663;52.310;17.016;2023-02-15T06:27:59;25.30;18.80
65072;DHT22;51663;52.310;17.016;2023-02-15T06:31:01;25.30;19.00
65072;DHT22;51663;52.310;17.016;2023-02-15T06:34:04;25.30;18.80
65072;DHT22;51663;52.310;17.016;2023-02-15T06:37:06;25.30;18.90
65072;DHT22;51663;52.310;17.016;2023-02-15T06:40:13;25.40;19.30
65072;DHT22;51663;52.310;17.016;2023-02-15T06:43:16;25.40;19.20
65072;DHT22;51663;52.310;17.016;2023-02-15T06:46:18;25.40;19.20
65072;DHT22;51663;52.310;17.016;2023-02-15T06:49:20;25.40;19.10
65072;DHT22;51663;52.310;17.016;2023-02-15T06:52:22;25.50;19.30
65072;DHT22;51663;52.310;17.016;2023-02-15T06:55:25;25.60;19.40
65072;DHT22;51663;52.310;17.016;2023-02-15T06:58:27;25.70;19.60
65072;DHT22;51663;52.310;17.016;2023-02-15T07:01:32;25.80;19.80
65072;DHT22;51663;52.310;17.016;2023-02-15T07:04:40;25.80;20.10
65072;DHT22;51663;52.310;17.016;2023-02-15T07:07:43;25.90;20.60
65072;DHT22;51663;52.310;17.016;2023-02-15T07:10:49;26.00;20.80
65072;DHT22;51663;52.310;17.016;2023-02-15T07:13:52;26.10;21.30
65072;DHT22;51663;52.310;17.016;2023-02-15T07:16:54;26.20;21.30
65072;DHT22;51663;52.310;17.016;2023-02-15T07:19:56;26.30;21.60
65072;DHT22;51663;52.310;17.016;2023-02-15T07:22:58;26.30;21.70
65072;DHT22;51663;52.310;17.016;2023-02-15T07:26:01;26.40;21.90
65072;DHT22;51663;52.310;17.016;2023-02-15T07:29:04;26.50;21.80
65072;DHT22;51663;52.310;17.016;2023-02-15T07:32:06;26.60;22.10
65072;DHT22;51663;52.310;17.016;2023-02-15T07:35:08;26.70;21.90
65072;DHT22;51663;52.310;17.016;2023-02-15T07:38:10;26.80;22.10
65072;DHT22;51663;52.310;17.016;2023-02-15T07:41:14;26.80;22.60
65072;DHT22;51663;52.310;17.016;2023-02-15T07:44:17;26.90;22.20
65072;DHT22;51663;52.310;17.016;2023-02-15T07:47:19;26.80;22.30
65072;DHT22;51663;52.310;17.016;2023-02-15T07:50:21;26.90;22.40
65072;DHT22;51663;52.310;17.016;2023-02-15T07:53:24;26.80;22.50
65072;DHT22;51663;52.310;17.016;2023-02-15T07:56:26;26.80;22.70
65072;DHT22;51663;52.310;17.016;2023-02-15T07:59:28;26.80;22.70
65072;DHT22;51663;52.310;17.016;2023-02-15T08:02:30;27.00;22.70
65072;DHT22;51663;52.310;17.016;2023-02-15T08:05:33;26.90;22.70
65072;DHT22;51663;52.310;17.016;2023-02-15T08:08:35;26.90;22.80
65072;DHT22;51663;52.310;17.016;2023-02-15T08:11:38;27.20;22.90
65072;DHT22;51663;52.310;17.016;2023-02-15T08:14:42;27.20;22.70
65072;DHT22;51663;52.310;17.016;2023-02-15T08:17:44;27.20;22.80
65072;DHT22;51663;52.310;17.016;2023-02-15T08:20:50;27.30;22.80
65072;DHT22;51663;52.310;17.016;2023-02-15T08:23:52;27.30;22.90
65072;DHT22;51663;52.310;17.016;2023-02-15T08:26:55;27.20;23.00
65072;DHT22;51663;52.310;17.016;2023-02-15T08:29:57;27.40;23.00
65072;DHT22;51663;52.310;17.016;2023-02-15T08:33:00;27.40;23.00
65072;DHT22;51663;52.310;17.016;2023-02-15T08:36:04;27.40;23.10
65072;DHT22;51663;52.310;17.016;2023-02-15T08:39:06;27.10;23.30
65072;DHT22;51663;52.310;17.016;2023-02-15T08:42:08;27.30;23.30
65072;DHT22;51663;52.310;17.016;2023-02-15T08:45:10;27.30;23.20
65072;DHT22;51663;52.310;17.016;2023-02-15T08:48:12;27.20;23.90
65072;DHT22;51663;52.310;17.016;2023-02-15T08:51:29;27.20;23.50
65072;DHT22;51663;52.310;17.016;2023-02-15T08:54:31;27.50;23.40
65072;DHT22;51663;52.310;17.016;2023-02-15T08:57:33;27.50;23.50
65072;DHT22;51663;52.310;17.016;2023-02-15T09:00:37;27.10;23.40
65072;DHT22;51663;52.310;17.016;2023-02-15T09:03:40;26.90;23.60
65072;DHT22;51663;52.310;17.016;2023-02-15T09:06:43;26.70;24.30
65072;DHT22;51663;52.310;17.016;2023-02-15T09:09:49;26.60;24.60
65072;DHT22;51663;52.310;17.016;2023-02-15T09:12:51;27.10;24.00
65072;DHT22;51663;52.310;17.016;2023-02-15T09:15:59;26.90;23.90
65072;DHT22;51663;52.310;17.016;2023-02-15T09:19:02;26.90;23.70
65072;DHT22;51663;52.310;17.016;2023-02-15T09:22:06;26.50;24.00
65072;DHT22;51663;52.310;17.016;2023-02-15T09:25:08;26.90;24.00
65072;DHT22;51663;52.310;17.016;2023-02-15T09:28:11;27.00;23.90
65072;DHT22;51663;52.310;17.016;2023-02-15T09:31:18;27.10;23.80
65072;DHT22;51663;52.310;17.016;2023-02-15T09:34:22;27.10;23.90
65072;DHT22;51663;52.310;17.016;2023-02-15T09:37:24;27.30;24.00
65072;DHT22;51663;52.310;17.016;2023-02-15T09:40:30;27.10;24.20
65072;DHT22;51663;52.310;17.016;2023-02-15T09:47:35;27.50;24.00
65072;DHT22;51663;52.310;17.016;2023-02-15T09:54:22;27.40;23.90
65072;DHT22;51663;52.310;17.016;2023-02-15T09:58:19;27.70;23.80
65072;DHT22;51663;52.310;17.016;2023-02-15T10:04:39;27.80;23.70
65072;DHT22;51663;52.310;17.016;2023-02-15T10:24:42;27.20;24.00
65072;DHT22;51663;52.310;17.016;2023-02-15T10:27:50;27.50;23.90
65072;DHT22;51663;52.310;17.016;2023-02-15T10:31:07;27.40;24.20
65072;DHT22;51663;52.310;17.016;2023-02-15T10:34:24;27.60;23.90
65072;DHT22;51663;52.310;17.016;2023-02-15T10:51:00;27.90;23.70
65072;DHT22;51663;52.310;17.016;2023-02-15T11:07:35;27.00;24.30
65072;DHT22;51663;52.310;17.016;2023-02-15T11:11:02;27.80;24.00
65072;DHT22;51663;52.310;17.016;2023-02-15T11:17:21;28.20;23.50
65072;DHT22;51663;52.310;17.016;2023-02-15T11:20:25;28.10;23.50
65072;DHT22;51663;52.310;17.016;2023-02-15T11:23:32;28.30;24.00
65072;DHT22;51663;52.310;17.016;2023-02-15T11:27:36;28.20;23.50
65072;DHT22;51663;52.310;17.016;2023-02-15T11:30:22;28.30;23.40
65072;DHT22;51663;52.310;17.016;2023-02-15T11:33:31;27.90;23.80
65072;DHT22;51663;52.310;17.016;2023-02-15T11:36:39;28.00;23.80
65072;DHT22;51663;52.310;17.016;2023-02-15T11:39:42;28.10;24.30
65072;DHT22;51663;52.310;17.016;2023-02-15T11:42:47;28.30;23.40
65072;DHT22;51663;52.310;17.016;2023-02-15T11:45:52;28.60;23.30
65072;DHT22;51663;52.310;17.016;2023-02-15T11:48:56;28.50;23.00
65072;DHT22;51663;52.310;17.016;2023-02-15T11:52:02;28.70;23.20
65072;DHT22;51663;52.310;17.016;2023-02-15T11:55:21;28.80;23.30
65072;DHT22;51663;52.310;17.016;2023-02-15T11:58:53;29.00;23.10
65072;DHT22;51663;52.310;17.016;2023-02-15T12:01:57;29.10;23.10
65072;DHT22;51663;52.310;17.016;2023-02-15T12:05:03;29.00;22.80
65072;DHT22;51663;52.310;17.016;2023-02-15T12:08:16;29.40;22.90
65072;DHT22;51663;52.310;17.016;2023-02-15T12:11:36;29.30;22.80
65072;DHT22;51663;52.310;17.016;2023-02-15T12:15:04;29.70;22.70
65072;DHT22;51663;52.310;17.016;2023-02-15T12:18:38;29.50;22.70
65072;DHT22;51663;52.310;17.016;2023-02-15T12:21:50;29.30;22.90
65072;DHT22;51663;52.310;17.016;2023-02-15T12:25:00;29.00;22.90
65072;DHT22;51663;52.310;17.016;2023-02-15T12:28:05;29.40;22.90
65072;DHT22;51663;52.310;17.016;2023-02-15T12:31:43;29.60;22.60
65072;DHT22;51663;52.310;17.016;2023-02-15T12:34:46;29.70;22.70
65072;DHT22;51663;52.310;17.016;2023-02-15T12:37:56;29.70;22.60
65072;DHT22;51663;52.310;17.016;2023-02-15T12:41:19;29.50;22.70
65072;DHT22;51663;52.310;17.016;2023-02-15T12:44:32;29.60;22.60
65072;DHT22;51663;52.310;17.016;2023-02-15T12:47:35;29.60;22.70
65072;DHT22;51663;52.310;17.016;2023-02-15T12:50:44;29.80;22.40
65072;DHT22;51663;52.310;17.016;2023-02-15T12:53:46;30.00;22.50
65072;DHT22;51663;52.310;17.016;2023-02-15T12:56:52;29.60;22.70
65072;DHT22;51663;52.310;17.016;2023-02-15T12:59:56;29.70;22.70
65072;DHT22;51663;52.310;17.016;2023-02-15T13:03:01;29.60;22.70
65072;DHT22;51663;52.310;17.016;2023-02-15T13:06:06;29.40;22.90
65072;DHT22;51663;52.310;17.016;2023-02-15T13:12:47;29.70;22.80
65072;DHT22;51663;52.310;17.016;2023-02-15T13:15:52;29.70;22.70
65072;DHT22;51663;52.310;17.016;2023-02-15T13:18:56;29.80;22.70
65072;DHT22;51663;52.310;17.016;2023-02-15T13:22:05;29.70;22.60
65072;DHT22;51663;52.310;17.016;2023-02-15T13:25:26;30.00;22.50
65072;DHT22;51663;52.310;17.016;2023-02-15T13:28:47;29.60;22.80
65072;DHT22;51663;52.310;17.016;2023-02-15T13:31:51;29.90;22.70
65072;DHT22;51663;52.310;17.016;2023-02-15T13:35:00;29.80;22.50
65072;DHT22;51663;52.310;17.016;2023-02-15T13:38:20;29.80;22.70
65072;DHT22;51663;52.310;17.016;2023-02-15T13:41:35;30.00;22.70
65072;DHT22;51663;52.310;17.016;2023-02-15T13:48:31;30.00;22.20
65072;DHT22;51663;52.310;17.016;2023-02-15T13:52:20;29.80;22.30
65072;DHT22;51663;52.310;17.016;2023-02-15T14:09:59;29.90;22.40
65072;DHT22;51663;52.310;17.016;2023-02-15T14:16:26;30.00;22.30
65072;DHT22;51663;52.310;17.016;2023-02-15T14:23:11;30.00;22.20
65072;DHT22;51663;52.310;17.016;2023-02-15T14:30:19;29.80;22.30
65072;DHT22;51663;52.310;17.016;2023-02-15T14:33:35;29.70;22.20
65072;DHT22;51663;52.310;17.016;2023-02-15T14:36:39;29.70;22.40
65072;DHT22;51663;52.310;17.016;2023-02-15T14:40:04;29.80;22.40
65072;DHT22;51663;52.310;17.016;2023-02-15T14:47:11;30.10;22.80
65072;DHT22;51663;52.310;17.016;2023-02-15T14:53:39;30.20;22.20
65072;DHT22;51663;52.310;17.016;2023-02-15T14:56:45;30.00;22.20
65072;DHT22;51663;52.310;17.016;2023-02-15T15:02:59;30.10;22.20
65072;DHT22;51663;52.310;17.016;2023-02-15T15:06:03;29.70;22.30
65072;DHT22;51663;52.310;17.016;2023-02-15T15:09:20;30.00;22.90
65072;DHT22;51663;52.310;17.016;2023-02-15T15:18:48;30.20;22.30
65072;DHT22;51663;52.310;17.016;2023-02-15T15:21:54;30.20;22.40
65072;DHT22;51663;52.310;17.016;2023-02-15T15:31:44;30.50;22.20
65072;DHT22;51663;52.310;17.016;2023-02-15T15:41:17;30.40;22.30
65072;DHT22;51663;52.310;17.016;2023-02-15T15:51:20;30.10;22.40
65072;DHT22;51663;52.310;17.016;2023-02-15T15:54:26;30.10;22.50
65072;DHT22;51663;52.310;17.016;2023-02-15T15:57:32;30.10;22.30
65072;DHT22;51663;52.310;17.016;2023-02-15T16:00:51;30.20;22.40
65072;DHT22;51663;52.310;17.016;2023-02-15T16:03:57;30.20;22.40
65072;DHT22;51663;52.310;17.016;2023-02-15T16:10:26;30.00;22.40
65072;DHT22;51663;52.310;17.016;2023-02-15T16:13:29;29.90;22.60
65072;DHT22;51663;52.310;17.016;2023-02-15T16:16:33;29.90;22.40
65072;DHT22;51663;52.310;17.016;2023-02-15T16:20:24;29.80;22.20
65072;DHT22;51663;52.310;17.016;2023-02-15T16:24:02;29.60;22.30
65072;DHT22;51663;52.310;17.016;2023-02-15T16:27:28;29.50;22.40
65072;DHT22;51663;52.310;17.016;2023-02-15T16:30:35;29.40;22.60
65072;DHT22;51663;52.310;17.016;2023-02-15T16:33:40;29.30;22.30
65072;DHT22;51663;52.310;17.016;2023-02-15T16:36:44;29.20;22.20
65072;DHT22;51663;52.310;17.016;2023-02-15T16:39:47;29.10;22.00
65072;DHT22;51663;52.310;17.016;2023-02-15T16:42:51;29.00;22.10
65072;DHT22;51663;52.310;17.016;2023-02-15T16:46:03;28.90;22.40
65072;DHT22;51663;52.310;17.016;2023-02-15T16:49:16;28.80;22.50
65072;DHT22;51663;52.310;17.016;2023-02-15T16:52:24;28.70;22.50
65072;DHT22;51663;52.310;17.016;2023-02-15T16:55:35;28.60;22.60
65072;DHT22;51663;52.310;17.016;2023-02-15T16:58:46;28.60;22.50
65072;DHT22;51663;52.310;17.016;2023-02-15T17:01:51;28.50;22.60
65072;DHT22;51663;52.310;17.016;2023-02-15T17:08:24;28.40;22.40
65072;DHT22;51663;52.310;17.016;2023-02-15T17:11:41;28.40;22.40
65072;DHT22;51663;52.310;17.016;2023-02-15T17:14:44;28.40;22.40
65072;DHT22;51663;52.310;17.016;2023-02-15T17:17:50;28.40;22.30
65072;DHT22;51663;52.310;17.016;2023-02-15T17:20:54;28.30;22.20
65072;DHT22;51663;52.310;17.016;2023-02-15T17:24:00;28.30;22.30
65072;DHT22;51663;52.310;17.016;2023-02-15T17:27:27;28.20;22.50
65072;DHT22;51663;52.310;17.016;2023-02-15T17:30:32;28.20;22.50
65072;DHT22;51663;52.310;17.016;2023-02-15T17:33:37;28.10;22.30
65072;DHT22;51663;52.310;17.016;2023-02-15T17:36:57;28.10;22.40
65072;DHT22;51663;52.310;17.016;2023-02-15T17:40:01;28.10;22.30
65072;DHT22;51663;52.310;17.016;2023-02-15T17:43:07;28.10;22.40
65072;DHT22;51663;52.310;17.016;2023-02-15T17:46:09;28.00;23.20
65072;DHT22;51663;52.310;17.016;2023-02-15T17:49:26;28.00;23.00
65072;DHT22;51663;52.310;17.016;2023-02-15T17:52:36;28.00;22.80
65072;DHT22;51663;52.310;17.016;2023-02-15T17:55:38;28.10;22.60
65072;DHT22;51663;52.310;17.016;2023-02-15T17:58:40;28.10;22.40
65072;DHT22;51663;52.310;17.016;2023-02-15T18:01:48;28.00;22.30
65072;DHT22;51663;52.310;17.016;2023-02-15T18:05:15;28.00;22.40
65072;DHT22;51663;52.310;17.016;2023-02-15T18:08:36;28.00;22.20
65072;DHT22;51663;52.310;17.016;2023-02-15T18:11:57;28.00;22.40
65072;DHT22;51663;52.310;17.016;2023-02-15T18:15:00;28.00;22.60
65072;DHT22;51663;52.310;17.016;2023-02-15T18:18:02;27.90;23.00
65072;DHT22;51663;52.310;17.016;2023-02-15T18:21:06;27.90;22.60
65072;DHT22;51663;52.310;17.016;2023-02-15T18:24:19;27.90;22.90
65072;DHT22;51663;52.310;17.016;2023-02-15T18:27:21;27.90;23.00
65072;DHT22;51663;52.310;17.016;2023-02-15T18:30:24;27.90;22.30
65072;DHT22;51663;52.310;17.016;2023-02-15T18:33:42;27.90;22.90
65072;DHT22;51663;52.310;17.016;2023-02-15T18:36:45;27.80;23.30
65072;DHT22;51663;52.310;17.016;2023-02-15T18:39:49;27.80;23.00
65072;DHT22;51663;52.310;17.016;2023-02-15T18:42:55;27.90;22.30
65072;DHT22;51663;52.310;17.016;2023-02-15T18:46:01;27.90;22.40
65072;DHT22;51663;52.310;17.016;2023-02-15T18:49:22;27.80;22.40
65072;DHT22;51663;52.310;17.016;2023-02-15T18:52:28;27.90;22.20
65072;DHT22;51663;52.310;17.016;2023-02-15T18:55:32;27.80;22.00
65072;DHT22;51663;52.310;17.016;2023-02-15T18:58:36;27.80;21.60
65072;DHT22;51663;52.310;17.016;2023-02-15T19:01:38;27.70;21.60
65072;DHT22;51663;52.310;17.016;2023-02-15T19:04:40;27.70;21.90
65072;DHT22;51663;52.310;17.016;2023-02-15T19:07:43;27.60;21.80
65072;DHT22;51663;52.310;17.016;2023-02-15T19:10:50;27.60;21.80
65072;DHT22;51663;52.310;17.016;2023-02-15T19:13:52;27.60;21.70
65072;DHT22;51663;52.310;17.016;2023-02-15T19:16:56;27.50;21.60
65072;DHT22;51663;52.310;17.016;2023-02-15T19:19:58;27.50;21.70
65072;DHT22;51663;52.310;17.016;2023-02-15T19:23:01;27.40;21.70
65072;DHT22;51663;52.310;17.016;2023-02-15T19:26:27;27.40;21.60
65072;DHT22;51663;52.310;17.016;2023-02-15T19:29:48;27.30;21.70
65072;DHT22;51663;52.310;17.016;2023-02-15T19:32:57;27.30;21.80
65072;DHT22;51663;52.310;17.016;2023-02-15T19:36:00;27.30;21.80
65072;DHT22;51663;52.310;17.016;2023-02-15T19:39:03;27.30;21.80
65072;DHT22;51663;52.310;17.016;2023-02-15T19:42:20;27.30;21.60
65072;DHT22;51663;52.310;17.016;2023-02-15T19:45:28;27.30;22.10
65072;DHT22;51663;52.310;17.016;2023-02-15T19:48:34;27.20;21.50
65072;DHT22;51663;52.310;17.016;2023-02-15T19:51:37;27.20;21.80
65072;DHT22;51663;52.310;17.016;2023-02-15T19:54:43;27.20;21.70
65072;DHT22;51663;52.310;17.016;2023-02-15T19:57:48;27.10;21.80
65072;DHT22;51663;52.310;17.016;2023-02-15T20:00:51;27.10;21.60
65072;DHT22;51663;52.310;17.016;2023-02-15T20:03:53;27.00;21.10
65072;DHT22;51663;52.310;17.016;2023-02-15T20:06:59;26.90;21.30
65072;DHT22;51663;52.310;17.016;2023-02-15T20:10:02;26.90;21.50
65072;DHT22;51663;52.310;17.016;2023-02-15T20:13:05;26.90;21.60
65072;DHT22;51663;52.310;17.016;2023-02-15T20:16:07;26.90;21.50
65072;DHT22;51663;52.310;17.016;2023-02-15T20:19:10;26.80;21.70
65072;DHT22;51663;52.310;17.016;2023-02-15T20:22:25;26.80;21.50
65072;DHT22;51663;52.310;17.016;2023-02-15T20:25:29;26.70;21.40
65072;DHT22;51663;52.310;17.016;2023-02-15T20:28:34;26.70;21.50
65072;DHT22;51663;52.310;17.016;2023-02-15T20:31:40;26.70;21.80
65072;DHT22;51663;52.310;17.016;2023-02-15T20:34:43;26.60;21.60
65072;DHT22;51663;52.310;17.016;2023-02-15T20:37:47;26.60;21.10
65072;DHT22;51663;52.310;17.016;2023-02-15T20:40:50;26.60;21.10
65072;DHT22;51663;52.310;17.016;2023-02-15T20:47:18;26.50;21.30
65072;DHT22;51663;52.310;17.016;2023-02-15T20:50:30;26.50;21.30
65072;DHT22;51663;52.310;17.016;2023-02-15T20:53:32;26.40;21.10
65072;DHT22;51663;52.310;17.016;2023-02-15T20:56:34;26.50;21.30
65072;DHT22;51663;52.310;17.016;2023-02-15T20:59:40;26.40;21.40
65072;DHT22;51663;52.310;17.016;2023-02-15T21:02:47;26.40;21.50
65072;DHT22;51663;52.310;17.016;2023-02-15T21:05:50;26.50;21.30
65072;DHT22;51663;52.310;17.016;2023-02-15T21:08:53;26.40;21.30
65072;DHT22;51663;52.310;17.016;2023-02-15T21:11:57;26.40;21.30
65072;DHT22;51663;52.310;17.016;2023-02-15T21:15:00;26.40;21.40
65072;DHT22;51663;52.310;17.016;2023-02-15T21:18:05;26.50;21.20
65072;DHT22;51663;52.310;17.016;2023-02-15T21:21:22;26.40;21.80
65072;DHT22;51663;52.310;17.016;2023-02-15T21:24:28;26.40;21.30
65072;DHT22;51663;52.310;17.016;2023-02-15T21:27:31;26.40;21.60
65072;DHT22;51663;52.310;17.016;2023-02-15T21:30:33;26.30;20.50
65072;DHT22;51663;52.310;17.016;2023-02-15T21:33:35;26.30;20.60
65072;DHT22;51663;52.310;17.016;2023-02-15T21:36:39;26.30;20.70
65072;DHT22;51663;52.310;17.016;2023-02-15T21:39:42;26.30;20.70
65072;DHT22;51663;52.310;17.016;2023-02-15T21:42:45;26.20;20.60
65072;DHT22;51663;52.310;17.016;2023-02-15T21:46:16;26.20;20.60
65072;DHT22;51663;52.310;17.016;2023-02-15T21:49:37;26.10;20.70
65072;DHT22;51663;52.310;17.016;2023-02-15T21:52:40;26.10;20.50
65072;DHT22;51663;52.310;17.016;2023-02-15T21:55:42;26.10;20.60
65072;DHT22;51663;52.310;17.016;2023-02-15T21:58:45;26.10;20.60
65072;DHT22;51663;52.310;17.016;2023-02-15T22:01:49;26.10;20.30
65072;DHT22;51663;52.310;17.016;2023-02-15T22:04:51;26.00;20.50
65072;DHT22;51663;52.310;17.016;2023-02-15T22:07:54;26.00;20.80
65072;DHT22;51663;52.310;17.016;2023-02-15T22:10:56;25.90;21.70
65072;DHT22;51663;52.310;17.016;2023-02-15T22:13:58;25.90;20.90
65072;DHT22;51663;52.310;17.016;2023-02-15T22:17:12;25.90;20.50
65072;DHT22;51663;52.310;17.016;2023-02-15T22:20:20;25.90;20.60